Terminal Aerodrome Forecast
Issued by NWS

Home | Current Version | Previous Version | Text Only | Print | Product List | Glossary Off
Versions: 1 2 3 4 5 6 7 8 9 10 11 12 13 14 15 16 17 18 19 20 21 22

000
FTUS43 KICT 231458 AAA
TAFRSL
TAF AMD
KRSL 231458Z 2315/2412 17013KT P6SM VCSH SCT070 BKN150
     FM231700 19015G20KT P6SM FEW070 SCT150
     FM240000 18008KT P6SM BKN250=

USA.gov is the U.S. government's official web portal to all federal, state and local government web resources and services.